createdAt,value
2023-03-31T00:00:40.400Z,10.8
2023-03-31T00:01:41.571Z,10.8
2023-03-31T00:02:42.799Z,10.8
2023-03-31T00:03:44.686Z,10.8
2023-03-31T00:04:46.844Z,10.8
2023-03-31T00:05:48.104Z,10.9
2023-03-31T00:06:49.057Z,10.9
2023-03-31T00:07:50.258Z,10.9
2023-03-31T00:08:51.830Z,10.9
2023-03-31T00:09:56.480Z,10.9
2023-03-31T00:11:19.236Z,10.9
2023-03-31T00:12:20.401Z,10.9
2023-03-31T00:13:21.370Z,10.9
2023-03-31T00:14:22.362Z,10.9
2023-03-31T00:15:23.506Z,10.9
2023-03-31T00:16:24.495Z,10.9
2023-03-31T00:17:25.830Z,10.9
2023-03-31T00:18:26.920Z,10.9
2023-03-31T00:19:28.086Z,10.9
2023-03-31T00:20:29.236Z,10.9
2023-03-31T00:21:30.400Z,10.9
2023-03-31T00:22:31.567Z,10.9
2023-03-31T00:23:32.730Z,10.9
2023-03-31T00:24:33.801Z,10.9
2023-03-31T00:25:35.021Z,10.9
2023-03-31T00:26:36.031Z,10.9
2023-03-31T00:27:37.070Z,10.9
2023-03-31T00:28:38.231Z,10.9
2023-03-31T00:29:39.418Z,10.9
2023-03-31T00:30:40.565Z,10.9
2023-03-31T00:31:41.654Z,10.9
2023-03-31T00:32:42.873Z,10.9
2023-03-31T00:33:43.920Z,10.9
2023-03-31T00:34:45.095Z,10.9
2023-03-31T00:35:46.092Z,10.9
2023-03-31T00:36:46.942Z,10.9
2023-03-31T00:37:48.382Z,10.9
2023-03-31T00:38:49.557Z,10.8
2023-03-31T00:39:50.648Z,10.9
2023-03-31T00:40:53.781Z,10.8
2023-03-31T00:41:54.908Z,10.8
2023-03-31T00:42:56.135Z,10.8
2023-03-31T00:43:57.148Z,10.8
2023-03-31T00:44:58.550Z,10.8
2023-03-31T00:45:59.373Z,10.8
2023-03-31T00:47:00.643Z,10.8
2023-03-31T00:48:01.814Z,10.7
2023-03-31T00:49:02.973Z,10.7
2023-03-31T00:50:03.971Z,10.7
2023-03-31T00:51:05.128Z,10.7
2023-03-31T00:52:06.409Z,10.7
2023-03-31T00:53:07.584Z,10.7
2023-03-31T00:54:08.601Z,10.6
2023-03-31T00:55:09.835Z,10.6
2023-03-31T00:56:10.963Z,10.6
2023-03-31T00:57:12.154Z,10.6
2023-03-31T00:58:13.398Z,10.6
2023-03-31T00:59:14.562Z,10.6
2023-03-31T01:00:15.765Z,10.6
2023-03-31T01:01:16.603Z,10.5
2023-03-31T01:02:17.897Z,10.5
2023-03-31T01:03:19.109Z,10.5
2023-03-31T01:04:20.024Z,10.5
2023-03-31T01:05:26.240Z,10.5
2023-03-31T01:06:27.177Z,10.5
2023-03-31T01:07:28.343Z,10.5
2023-03-31T01:08:29.509Z,10.5
2023-03-31T01:09:30.479Z,10.5
2023-03-31T01:10:31.702Z,10.5
2023-03-31T01:11:32.849Z,10.4
2023-03-31T01:12:34.020Z,10.4
2023-03-31T01:13:35.179Z,10.4
2023-03-31T01:14:36.352Z,10.4
2023-03-31T01:15:37.547Z,10.4
2023-03-31T01:16:38.546Z,10.4
2023-03-31T01:17:39.965Z,10.4
2023-03-31T01:18:41.545Z,10.3
2023-03-31T01:19:42.756Z,10.4
2023-03-31T01:20:43.936Z,10.3
2023-03-31T01:21:44.890Z,10.3
2023-03-31T01:22:45.881Z,10.3
2023-03-31T01:23:47.108Z,10.3
2023-03-31T01:24:48.297Z,10.3
2023-03-31T01:25:49.367Z,10.3
2023-03-31T01:26:50.486Z,10.3
2023-03-31T01:27:51.653Z,10.3
2023-03-31T01:28:52.752Z,10.2
2023-03-31T01:29:53.913Z,10.3
2023-03-31T01:30:54.715Z,10.2
2023-03-31T01:31:55.950Z,10.2
2023-03-31T01:32:57.141Z,10.2
2023-03-31T01:33:58.211Z,10.2
2023-03-31T01:34:59.237Z,10.2
2023-03-31T01:36:00.435Z,10.2
2023-03-31T01:37:01.710Z,10.2
2023-03-31T01:38:02.881Z,10.2
2023-03-31T01:39:04.056Z,10.2
2023-03-31T01:40:05.216Z,10.2
2023-03-31T01:41:06.418Z,10.1
2023-03-31T01:42:07.385Z,10.1
2023-03-31T01:43:08.553Z,10.1
2023-03-31T01:44:09.859Z,10.1
2023-03-31T01:45:10.879Z,10.1
2023-03-31T01:46:12.495Z,10.1
2023-03-31T01:47:13.636Z,10.1
2023-03-31T01:48:14.603Z,10.1
2023-03-31T01:49:15.420Z,10.1
2023-03-31T01:50:16.602Z,10.1
2023-03-31T01:51:17.787Z,10.1
2023-03-31T01:52:18.944Z,10.1
2023-03-31T01:53:20.371Z,10
2023-03-31T01:54:21.528Z,10
2023-03-31T01:55:22.498Z,10
2023-03-31T01:56:23.417Z,10
2023-03-31T01:57:24.651Z,10
2023-03-31T01:58:25.713Z,10
2023-03-31T01:59:26.886Z,10
2023-03-31T02:00:28.049Z,10.1
2023-03-31T02:01:29.267Z,10.1
2023-03-31T02:02:32.421Z,10.1
2023-03-31T02:03:34.082Z,10
2023-03-31T02:04:35.693Z,10.1
2023-03-31T02:05:36.863Z,10
2023-03-31T02:06:38.056Z,10
2023-03-31T02:07:38.996Z,10.1
2023-03-31T02:08:40.159Z,10.1
2023-03-31T02:09:41.348Z,10.1
2023-03-31T02:10:42.492Z,10.1
2023-03-31T02:11:43.721Z,10
2023-03-31T02:12:44.653Z,10.1
2023-03-31T02:13:45.819Z,10.1
2023-03-31T02:14:47.140Z,10
2023-03-31T02:15:48.310Z,10.1
2023-03-31T02:16:49.570Z,10
2023-03-31T02:17:51.138Z,10
2023-03-31T02:18:52.122Z,10
2023-03-31T02:19:53.177Z,10
2023-03-31T02:20:54.224Z,10
2023-03-31T02:21:55.434Z,10
2023-03-31T02:22:56.373Z,10
2023-03-31T02:23:57.548Z,10
2023-03-31T02:24:58.696Z,10
2023-03-31T02:25:59.719Z,10
2023-03-31T02:27:00.948Z,10
2023-03-31T02:28:01.910Z,9.9
2023-03-31T02:29:02.889Z,9.9
2023-03-31T02:30:04.047Z,9.9
2023-03-31T02:31:05.345Z,9.9
2023-03-31T02:32:06.403Z,9.9
2023-03-31T02:33:07.647Z,9.9
2023-03-31T02:34:09.048Z,9.9
2023-03-31T02:35:10.013Z,9.9
2023-03-31T02:36:11.256Z,9.8
2023-03-31T02:37:12.359Z,9.8
2023-03-31T02:38:13.491Z,9.8
2023-03-31T02:39:14.657Z,9.8
2023-03-31T02:40:15.465Z,9.8
2023-03-31T02:41:16.280Z,9.8
2023-03-31T02:42:17.487Z,9.8
2023-03-31T02:43:18.608Z,9.7
2023-03-31T02:44:19.778Z,9.7
2023-03-31T02:45:20.942Z,9.7
2023-03-31T02:46:22.121Z,9.7
2023-03-31T02:47:23.595Z,9.7
2023-03-31T02:48:24.800Z,9.7
2023-03-31T02:49:25.958Z,9.7
2023-03-31T02:50:26.928Z,9.7
2023-03-31T02:51:28.091Z,9.7
2023-03-31T02:52:29.076Z,9.7
2023-03-31T02:53:29.876Z,9.6
2023-03-31T02:54:31.035Z,9.6
2023-03-31T02:55:32.054Z,9.6
2023-03-31T02:56:33.216Z,9.6
2023-03-31T02:57:34.308Z,9.6
2023-03-31T02:58:35.435Z,9.6
2023-03-31T02:59:36.598Z,9.6
2023-03-31T03:00:37.764Z,9.6
2023-03-31T03:01:38.899Z,9.6
2023-03-31T03:02:40.449Z,9.5
2023-03-31T03:03:42.057Z,9.6
2023-03-31T03:04:43.226Z,9.5
2023-03-31T03:05:44.193Z,9.5
2023-03-31T03:06:45.362Z,9.5
2023-03-31T03:07:46.544Z,9.5
2023-03-31T03:08:47.688Z,9.5
2023-03-31T03:09:48.868Z,9.5
2023-03-31T03:10:50.019Z,9.5
2023-03-31T03:11:50.832Z,9.5
2023-03-31T03:12:51.989Z,9.5
2023-03-31T03:13:52.917Z,9.5
2023-03-31T03:14:54.113Z,9.5
2023-03-31T03:15:55.277Z,9.5
2023-03-31T03:16:56.492Z,9.5
2023-03-31T03:17:57.868Z,9.5
2023-03-31T03:18:59.173Z,9.5
2023-03-31T03:20:00.167Z,9.5
2023-03-31T03:21:01.236Z,9.5
2023-03-31T03:22:02.197Z,9.5
2023-03-31T03:23:03.404Z,9.5
2023-03-31T03:24:04.531Z,9.5
2023-03-31T03:25:05.561Z,9.5
2023-03-31T03:26:06.838Z,9.5
2023-03-31T03:27:08.538Z,9.5
2023-03-31T03:28:09.609Z,9.5
2023-03-31T03:29:10.541Z,9.5
2023-03-31T03:30:11.507Z,9.5
2023-03-31T03:31:12.682Z,9.5
2023-03-31T03:32:13.857Z,9.5
2023-03-31T03:33:15.920Z,9.5
2023-03-31T03:34:17.021Z,9.5
2023-03-31T03:35:17.990Z,9.5
2023-03-31T03:36:19.016Z,9.5
2023-03-31T03:37:20.497Z,9.5
2023-03-31T03:38:21.670Z,9.5
2023-03-31T03:39:22.824Z,9.5
2023-03-31T03:40:23.997Z,9.5
2023-03-31T03:41:24.970Z,9.5
2023-03-31T03:42:25.925Z,9.5
2023-03-31T03:43:27.128Z,9.6
2023-03-31T03:44:28.254Z,9.6
2023-03-31T03:45:29.221Z,9.6
2023-03-31T03:46:30.425Z,9.6
2023-03-31T03:47:31.462Z,9.6
2023-03-31T03:48:32.426Z,9.6
2023-03-31T03:49:33.388Z,9.6
2023-03-31T03:50:34.355Z,9.6
2023-03-31T03:51:35.519Z,9.6
2023-03-31T03:52:36.687Z,9.6
2023-03-31T03:53:37.859Z,9.6
2023-03-31T03:54:38.826Z,9.7
2023-03-31T03:55:39.984Z,9.7
2023-03-31T03:56:41.150Z,9.7
2023-03-31T03:57:42.441Z,9.7
2023-03-31T03:58:43.634Z,9.7
2023-03-31T03:59:44.627Z,9.7
2023-03-31T04:00:45.647Z,9.7
2023-03-31T04:01:46.821Z,9.7
2023-03-31T04:02:48.042Z,9.7
2023-03-31T04:03:49.274Z,9.7
2023-03-31T04:04:50.468Z,9.7
2023-03-31T04:05:51.748Z,9.7
2023-03-31T04:06:52.914Z,9.7
2023-03-31T04:07:53.881Z,9.7
2023-03-31T04:08:55.049Z,9.7
2023-03-31T04:09:56.210Z,9.7
2023-03-31T04:10:57.373Z,9.7
2023-03-31T04:11:58.345Z,9.7
2023-03-31T04:12:59.505Z,9.7
2023-03-31T04:14:00.716Z,9.7
2023-03-31T04:15:01.838Z,9.7
2023-03-31T04:16:03.048Z,9.7
2023-03-31T04:17:04.303Z,9.7
2023-03-31T04:18:05.505Z,9.7
2023-03-31T04:19:06.623Z,9.7
2023-03-31T04:20:07.774Z,9.7
2023-03-31T04:21:08.943Z,9.7
2023-03-31T04:22:09.954Z,9.7
2023-03-31T04:23:11.114Z,9.7
2023-03-31T04:24:12.292Z,9.6
2023-03-31T04:25:13.449Z,9.7
2023-03-31T04:26:14.611Z,9.6
2023-03-31T04:27:15.772Z,9.6
2023-03-31T04:28:16.941Z,9.6
2023-03-31T04:29:17.944Z,9.6
2023-03-31T04:30:19.073Z,9.6
2023-03-31T04:31:20.293Z,9.6
2023-03-31T04:32:21.390Z,9.6
2023-03-31T04:33:22.548Z,9.6
2023-03-31T04:34:23.730Z,9.6
2023-03-31T04:35:24.898Z,9.6
2023-03-31T04:36:26.121Z,9.5
2023-03-31T04:37:27.286Z,9.6
2023-03-31T04:38:28.449Z,9.5
2023-03-31T04:39:29.481Z,9.6
2023-03-31T04:40:30.636Z,9.6
2023-03-31T04:41:31.798Z,9.6
2023-03-31T04:43:34.059Z,9.5
2023-03-31T04:44:35.320Z,9.5
2023-03-31T04:45:36.503Z,9.5
2023-03-31T04:46:37.747Z,9.5
2023-03-31T04:47:38.914Z,9.5
2023-03-31T04:48:40.701Z,9.5
2023-03-31T04:49:41.846Z,9.5
2023-03-31T04:50:42.836Z,9.5
2023-03-31T04:51:43.844Z,9.5
2023-03-31T04:52:45.010Z,9.5
2023-03-31T04:53:46.200Z,9.5
2023-03-31T04:54:47.177Z,9.5
2023-03-31T04:55:48.147Z,9.5
2023-03-31T04:56:49.341Z,9.5
2023-03-31T04:57:50.434Z,9.5
2023-03-31T04:58:51.429Z,9.5
2023-03-31T04:59:52.612Z,9.5
2023-03-31T05:00:53.586Z,9.5
2023-03-31T05:01:54.754Z,9.5
2023-03-31T05:02:56.050Z,9.5
2023-03-31T05:03:57.150Z,9.5
2023-03-31T05:04:57.972Z,9.5
2023-03-31T05:05:58.747Z,9.5
2023-03-31T05:06:59.931Z,9.5
2023-03-31T05:08:01.095Z,9.5
2023-03-31T05:09:02.268Z,9.5
2023-03-31T05:10:03.078Z,9.5
2023-03-31T05:11:04.239Z,9.5
2023-03-31T05:12:05.205Z,9.5
2023-03-31T05:13:06.372Z,9.5
2023-03-31T05:14:07.566Z,9.5
2023-03-31T05:15:09.141Z,9.5
2023-03-31T05:16:10.377Z,9.6
2023-03-31T05:17:11.743Z,9.6
2023-03-31T05:18:12.907Z,9.6
2023-03-31T05:19:13.885Z,9.6
2023-03-31T05:20:15.037Z,9.7
2023-03-31T05:21:16.199Z,9.7
2023-03-31T05:22:17.365Z,9.7
2023-03-31T05:23:18.381Z,9.8
2023-03-31T05:24:19.563Z,9.8
2023-03-31T05:25:20.701Z,9.9
2023-03-31T05:26:21.874Z,9.9
2023-03-31T05:27:23.047Z,9.9
2023-03-31T05:28:24.004Z,10
2023-03-31T05:29:25.189Z,10
2023-03-31T05:30:26.405Z,10
2023-03-31T05:31:27.600Z,10
2023-03-31T05:32:28.777Z,10.1
2023-03-31T05:33:30.022Z,10.1
2023-03-31T05:34:31.200Z,10.1
2023-03-31T05:35:32.402Z,10.1
2023-03-31T05:36:33.346Z,10.1
2023-03-31T05:37:34.516Z,10.2
2023-03-31T05:38:35.681Z,10.2
2023-03-31T05:39:36.858Z,10.2
2023-03-31T05:40:37.821Z,10.2
2023-03-31T05:41:38.843Z,10.2
2023-03-31T05:42:40.007Z,10.2
2023-03-31T05:43:41.175Z,10.2
2023-03-31T05:44:42.360Z,10.2
2023-03-31T05:45:43.342Z,10.2
2023-03-31T05:46:46.508Z,10.2
2023-03-31T05:47:47.956Z,10.3
2023-03-31T05:48:49.141Z,10.3
2023-03-31T05:49:50.369Z,10.3
2023-03-31T05:50:51.301Z,10.3
2023-03-31T05:51:52.463Z,10.3
2023-03-31T05:52:53.625Z,10.3
2023-03-31T05:53:54.606Z,10.3
2023-03-31T05:54:55.618Z,10.3
2023-03-31T05:55:56.551Z,10.3
2023-03-31T05:56:57.556Z,10.3
2023-03-31T05:57:58.738Z,10.3
2023-03-31T05:58:59.728Z,10.4
2023-03-31T06:00:00.918Z,10.4
2023-03-31T06:01:02.126Z,10.4
2023-03-31T06:02:03.267Z,10.4
2023-03-31T06:03:04.463Z,10.4
2023-03-31T06:04:06.020Z,10.4
2023-03-31T06:05:07.119Z,10.4
2023-03-31T06:06:08.228Z,10.4
2023-03-31T06:07:09.130Z,10.4
2023-03-31T06:08:10.294Z,10.4
2023-03-31T06:09:11.472Z,10.4
2023-03-31T06:10:12.302Z,10.4
2023-03-31T06:11:13.256Z,10.4
2023-03-31T06:12:14.420Z,10.4
2023-03-31T06:13:15.585Z,10.4
2023-03-31T06:14:16.556Z,10.4
2023-03-31T06:15:17.735Z,10.4
2023-03-31T06:16:19.019Z,10.4
2023-03-31T06:17:20.181Z,10.4
2023-03-31T06:18:21.436Z,10.4
2023-03-31T06:19:22.328Z,10.4
2023-03-31T06:20:28.082Z,10.4
2023-03-31T06:21:29.803Z,10.4
2023-03-31T06:22:30.948Z,10.4
2023-03-31T06:23:32.127Z,10.5
2023-03-31T06:24:33.267Z,10.5
2023-03-31T06:25:43.956Z,10.5
2023-03-31T06:26:53.830Z,10.5
2023-03-31T06:27:55.211Z,10.5
2023-03-31T06:28:56.370Z,10.5
2023-03-31T06:29:57.535Z,10.5
2023-03-31T06:30:58.712Z,10.5
2023-03-31T06:31:59.935Z,10.6
2023-03-31T06:33:01.250Z,10.6
2023-03-31T06:34:02.395Z,10.6
2023-03-31T06:35:03.409Z,10.6
2023-03-31T06:36:04.606Z,10.6
2023-03-31T06:37:05.759Z,10.7
2023-03-31T06:38:06.729Z,10.7
2023-03-31T06:39:07.892Z,10.7
2023-03-31T06:40:09.072Z,10.8
2023-03-31T06:41:10.255Z,10.8
2023-03-31T06:42:11.394Z,10.8
2023-03-31T06:43:12.556Z,10.9
2023-03-31T06:44:13.724Z,10.9
2023-03-31T06:45:14.888Z,10.9
2023-03-31T06:46:16.103Z,10.9
2023-03-31T06:47:17.499Z,10.9
2023-03-31T06:48:18.691Z,11
2023-03-31T06:49:19.856Z,11
2023-03-31T06:50:21.028Z,11
2023-03-31T06:51:22.198Z,11
2023-03-31T06:52:23.350Z,11
2023-03-31T06:53:24.520Z,11.1
2023-03-31T06:54:25.689Z,11.1
2023-03-31T06:55:26.852Z,11.1
2023-03-31T06:56:27.911Z,11.1
2023-03-31T06:57:29.278Z,11.2
2023-03-31T06:58:31.798Z,11.2
2023-03-31T06:59:33.107Z,11.2
2023-03-31T07:00:34.277Z,11.2
2023-03-31T07:01:35.504Z,11.3
2023-03-31T07:02:36.949Z,11.3
2023-03-31T07:03:38.569Z,11.4
2023-03-31T07:04:40.004Z,11.4
2023-03-31T07:05:41.148Z,11.5
2023-03-31T07:06:42.332Z,11.5
2023-03-31T07:07:45.860Z,11.6
2023-03-31T07:08:47.420Z,11.6
2023-03-31T07:09:48.588Z,11.7
2023-03-31T07:10:49.748Z,11.7
2023-03-31T07:11:50.943Z,11.8
2023-03-31T07:12:52.081Z,11.8
2023-03-31T07:13:53.245Z,11.8
2023-03-31T07:14:54.413Z,11.8
2023-03-31T07:15:55.618Z,11.8
2023-03-31T07:16:56.975Z,11.8
2023-03-31T07:17:58.184Z,11.8
2023-03-31T07:18:59.434Z,11.8
2023-03-31T07:20:00.612Z,11.8
2023-03-31T07:21:01.817Z,11.7
2023-03-31T07:22:02.942Z,11.7
2023-03-31T07:23:04.095Z,11.7
2023-03-31T07:24:05.265Z,11.7
2023-03-31T07:25:06.421Z,11.7
2023-03-31T07:27:08.170Z,11.7
2023-03-31T07:28:09.326Z,11.7
2023-03-31T07:29:10.486Z,11.7
2023-03-31T07:30:11.655Z,11.7
2023-03-31T07:31:12.873Z,11.8
2023-03-31T07:32:14.123Z,11.8
2023-03-31T07:33:15.686Z,11.8
2023-03-31T07:34:17.013Z,11.8
2023-03-31T07:35:18.184Z,11.8
2023-03-31T07:36:19.554Z,11.9
2023-03-31T07:37:22.625Z,11.9
2023-03-31T07:38:23.769Z,11.9
2023-03-31T07:39:24.930Z,11.9
2023-03-31T07:40:26.143Z,12
2023-03-31T07:41:27.522Z,12
2023-03-31T07:42:28.815Z,12
2023-03-31T07:43:29.970Z,12
2023-03-31T07:44:31.155Z,12
2023-03-31T07:45:32.302Z,12
2023-03-31T07:46:33.532Z,12
2023-03-31T07:47:34.840Z,12
2023-03-31T07:48:36.223Z,12
2023-03-31T07:49:37.366Z,12
2023-03-31T07:50:38.590Z,12
2023-03-31T07:51:39.750Z,12
2023-03-31T07:52:41.693Z,11.9
2023-03-31T07:53:47.701Z,11.9
2023-03-31T07:54:48.861Z,11.9
2023-03-31T07:55:50.041Z,11.9
2023-03-31T07:56:51.046Z,11.9
2023-03-31T07:57:52.266Z,11.9
2023-03-31T07:58:56.160Z,11.9
2023-03-31T07:59:58.860Z,11.9
2023-03-31T08:01:00.029Z,11.9
2023-03-31T08:02:01.224Z,11.9
2023-03-31T08:03:02.890Z,11.9
2023-03-31T08:04:04.223Z,11.9
2023-03-31T08:05:05.382Z,11.9
2023-03-31T08:06:06.532Z,11.9
2023-03-31T08:07:08.576Z,11.9
2023-03-31T08:08:09.604Z,12
2023-03-31T08:09:10.768Z,12
2023-03-31T08:10:11.949Z,12
2023-03-31T08:11:13.104Z,12
2023-03-31T08:12:14.261Z,12
2023-03-31T08:13:15.473Z,12
2023-03-31T08:14:20.147Z,12.1
2023-03-31T08:15:42.141Z,12.1
2023-03-31T08:16:43.319Z,12.1
2023-03-31T08:17:44.403Z,12.1
2023-03-31T08:18:45.461Z,12.1
2023-03-31T08:19:46.674Z,12.2
2023-03-31T08:20:49.526Z,12.2
2023-03-31T08:21:50.595Z,12.2
2023-03-31T08:22:51.757Z,12.2
2023-03-31T08:23:53.026Z,12.2
2023-03-31T08:24:54.170Z,12.3
2023-03-31T08:25:55.327Z,12.2
2023-03-31T08:26:56.493Z,12.3
2023-03-31T08:27:57.518Z,12.2
2023-03-31T08:28:58.689Z,12.2
2023-03-31T08:29:59.882Z,12.2
2023-03-31T08:31:01.006Z,12.2
2023-03-31T08:32:02.221Z,12.2
2023-03-31T08:33:03.682Z,12.2
2023-03-31T08:34:04.782Z,12.2
2023-03-31T08:35:05.973Z,12.2
2023-03-31T08:36:07.248Z,12.2
2023-03-31T08:37:09.008Z,12.2
2023-03-31T08:38:10.166Z,12.2
2023-03-31T08:39:11.367Z,12.2
2023-03-31T08:40:12.521Z,12.2
2023-03-31T08:41:13.681Z,12.2
2023-03-31T08:42:16.129Z,12.2
2023-03-31T08:43:17.216Z,12.2
2023-03-31T08:44:18.389Z,12.2
2023-03-31T08:45:19.544Z,12.2
2023-03-31T08:46:20.740Z,12.2
2023-03-31T08:47:21.751Z,12.2
2023-03-31T08:48:22.697Z,12.2
2023-03-31T08:49:24.012Z,12.2
2023-03-31T08:50:25.183Z,12.2
2023-03-31T08:51:26.359Z,12.2
2023-03-31T08:52:27.525Z,12.2
2023-03-31T08:53:28.532Z,12.3
2023-03-31T08:54:29.507Z,12.3
2023-03-31T08:55:30.520Z,12.3
2023-03-31T08:56:31.683Z,12.3
2023-03-31T08:57:32.901Z,12.3
2023-03-31T08:58:34.150Z,12.3
2023-03-31T08:59:35.342Z,12.3
2023-03-31T09:00:36.485Z,12.3
2023-03-31T09:01:44.365Z,12.3
2023-03-31T09:02:57.712Z,12.3
2023-03-31T09:03:59.555Z,12.3
2023-03-31T09:05:01.434Z,12.3
2023-03-31T09:06:02.777Z,12.3
2023-03-31T09:07:03.720Z,12.4
2023-03-31T09:08:04.889Z,12.4
2023-03-31T09:09:06.060Z,12.4
2023-03-31T09:10:07.248Z,12.4
2023-03-31T09:11:08.421Z,12.4
2023-03-31T09:12:09.580Z,12.4
2023-03-31T09:13:10.743Z,12.4
2023-03-31T09:14:11.907Z,12.4
2023-03-31T09:15:14.777Z,12.4
2023-03-31T09:16:17.335Z,12.4
2023-03-31T09:17:18.499Z,12.4
2023-03-31T09:18:19.740Z,12.4
2023-03-31T09:19:20.900Z,12.4
2023-03-31T09:20:22.078Z,12.4
2023-03-31T09:21:23.265Z,12.4
2023-03-31T09:22:24.403Z,12.4
2023-03-31T09:23:25.591Z,12.4
2023-03-31T09:24:26.769Z,12.3
2023-03-31T09:25:28.797Z,12.3
2023-03-31T09:26:29.958Z,12.3
2023-03-31T09:27:31.137Z,12.3
2023-03-31T09:28:32.325Z,12.3
2023-03-31T09:29:33.462Z,12.3
2023-03-31T09:30:34.628Z,12.3
2023-03-31T09:31:35.818Z,12.3
2023-03-31T09:32:37.075Z,12.3
2023-03-31T09:33:38.405Z,12.3
2023-03-31T09:34:39.541Z,12.4
2023-03-31T09:35:40.724Z,12.4
2023-03-31T09:36:43.445Z,12.4
2023-03-31T09:37:44.581Z,12.4
2023-03-31T09:38:45.781Z,12.4
2023-03-31T09:39:46.915Z,12.4
2023-03-31T09:40:48.091Z,12.5
2023-03-31T09:41:49.260Z,12.5
2023-03-31T09:42:50.224Z,12.5
2023-03-31T09:43:51.428Z,12.5
2023-03-31T09:44:52.584Z,12.5
2023-03-31T09:46:08.346Z,12.5
2023-03-31T09:47:16.438Z,12.5
2023-03-31T09:48:17.900Z,12.5
2023-03-31T09:49:19.081Z,12.5
2023-03-31T09:50:20.259Z,12.5
2023-03-31T09:51:26.546Z,12.5
2023-03-31T09:52:28.129Z,12.5
2023-03-31T09:53:29.254Z,12.5
2023-03-31T09:54:30.433Z,12.4
2023-03-31T09:55:39.451Z,12.4
2023-03-31T09:56:41.352Z,12.4
2023-03-31T09:57:42.519Z,12.4
2023-03-31T09:58:43.513Z,12.4
2023-03-31T09:59:44.541Z,12.4
2023-03-31T10:00:45.693Z,12.4
2023-03-31T10:01:46.880Z,12.4
2023-03-31T10:02:47.863Z,12.4
2023-03-31T10:03:49.057Z,12.3
2023-03-31T10:04:50.280Z,12.3
2023-03-31T10:05:51.436Z,12.3
2023-03-31T10:06:52.602Z,12.3
2023-03-31T10:07:53.818Z,12.3
2023-03-31T10:08:55.031Z,12.2
2023-03-31T10:09:56.207Z,12.2
2023-03-31T10:10:57.368Z,12.2
2023-03-31T10:11:58.531Z,12.2
2023-03-31T10:12:59.698Z,12.2
2023-03-31T10:14:00.849Z,12.2
2023-03-31T10:15:02.029Z,12.1
2023-03-31T10:16:03.212Z,12.1
2023-03-31T10:17:04.590Z,12.1
2023-03-31T10:18:05.774Z,12
2023-03-31T10:19:07.065Z,12
2023-03-31T10:20:08.054Z,12
2023-03-31T10:21:09.299Z,11.9
2023-03-31T10:22:10.429Z,11.9
2023-03-31T10:23:12.446Z,11.9
2023-03-31T10:24:13.583Z,11.8
2023-03-31T10:25:14.574Z,11.8
2023-03-31T10:26:15.720Z,11.8
2023-03-31T10:27:17.898Z,11.8
2023-03-31T10:28:20.860Z,11.7
2023-03-31T10:29:22.023Z,11.7
2023-03-31T10:30:23.009Z,11.7
2023-03-31T10:31:24.164Z,11.7
2023-03-31T10:32:25.453Z,11.7
2023-03-31T10:33:26.840Z,11.7
2023-03-31T10:34:27.937Z,11.7
2023-03-31T10:35:29.144Z,11.6
2023-03-31T10:36:30.269Z,11.6
2023-03-31T10:37:31.239Z,11.6
2023-03-31T10:38:32.433Z,11.6
2023-03-31T10:39:33.581Z,11.6
2023-03-31T10:40:34.817Z,11.6
2023-03-31T10:41:35.996Z,11.6
2023-03-31T10:42:37.166Z,11.5
2023-03-31T10:43:38.325Z,11.5
2023-03-31T10:44:39.493Z,11.5
2023-03-31T10:45:40.490Z,11.5
2023-03-31T10:46:41.447Z,11.5
2023-03-31T10:47:42.799Z,11.5
2023-03-31T10:48:43.970Z,11.5
2023-03-31T10:49:45.461Z,11.5
2023-03-31T10:50:46.634Z,11.5
2023-03-31T10:51:47.795Z,11.5
2023-03-31T10:52:48.970Z,11.5
2023-03-31T10:53:50.184Z,11.5
2023-03-31T10:54:51.367Z,11.5
2023-03-31T10:55:52.407Z,11.5
2023-03-31T10:56:54.292Z,11.5
2023-03-31T10:57:55.492Z,11.5
2023-03-31T10:59:05.016Z,11.6
2023-03-31T11:00:07.433Z,11.6
2023-03-31T11:01:08.658Z,11.6
2023-03-31T11:02:09.663Z,11.6
2023-03-31T11:03:10.846Z,11.6
2023-03-31T11:04:12.290Z,11.6
2023-03-31T11:05:13.594Z,11.6
2023-03-31T11:06:14.981Z,11.6
2023-03-31T11:07:16.132Z,11.6
2023-03-31T11:08:19.329Z,11.6
2023-03-31T11:09:21.362Z,11.6
2023-03-31T11:10:22.509Z,11.6
2023-03-31T11:11:23.968Z,11.6
2023-03-31T11:12:24.957Z,11.6
2023-03-31T11:13:26.123Z,11.6
2023-03-31T11:14:28.251Z,11.6
2023-03-31T11:15:31.779Z,11.6
2023-03-31T11:16:33.093Z,11.6
2023-03-31T11:17:34.380Z,11.6
2023-03-31T11:18:35.520Z,11.6
2023-03-31T11:19:36.690Z,11.6
2023-03-31T11:20:37.861Z,11.6
2023-03-31T11:21:39.029Z,11.6
2023-03-31T11:22:40.339Z,11.6
2023-03-31T11:23:41.497Z,11.6
2023-03-31T11:24:42.690Z,11.7
2023-03-31T11:25:43.827Z,11.7
2023-03-31T11:26:44.856Z,11.7
2023-03-31T11:27:46.003Z,11.7
2023-03-31T11:28:47.167Z,11.7
2023-03-31T11:29:48.337Z,11.7
2023-03-31T11:30:49.497Z,11.8
2023-03-31T11:31:50.718Z,11.8
2023-03-31T11:32:51.936Z,11.8
2023-03-31T11:33:53.250Z,11.8
2023-03-31T11:34:54.416Z,11.8
2023-03-31T11:35:55.409Z,11.9
2023-03-31T11:36:56.367Z,11.9
2023-03-31T11:37:57.519Z,11.9
2023-03-31T11:38:58.690Z,12
2023-03-31T11:39:59.875Z,12
2023-03-31T11:41:01.021Z,12
2023-03-31T11:42:02.236Z,12.1
2023-03-31T11:43:03.371Z,12.1
2023-03-31T11:44:04.549Z,12.1
2023-03-31T11:45:05.713Z,12.2
2023-03-31T11:46:06.974Z,12.2
2023-03-31T11:47:08.626Z,12.2
2023-03-31T11:48:09.793Z,12.2
2023-03-31T11:49:10.847Z,12.2
2023-03-31T11:50:12.008Z,12.3
2023-03-31T11:51:13.180Z,12.3
2023-03-31T11:52:14.163Z,12.3
2023-03-31T11:53:15.502Z,12.4
2023-03-31T11:54:16.531Z,12.4
2023-03-31T11:55:17.760Z,12.4
2023-03-31T11:56:18.909Z,12.5
2023-03-31T11:57:20.131Z,12.5
2023-03-31T11:58:21.354Z,12.5
2023-03-31T11:59:22.517Z,12.6
2023-03-31T12:00:23.687Z,12.6
2023-03-31T12:01:24.655Z,12.6
2023-03-31T12:02:25.843Z,12.6
2023-03-31T12:03:27.136Z,12.7
2023-03-31T12:04:28.355Z,12.7
2023-03-31T12:05:29.355Z,12.7
2023-03-31T12:06:30.309Z,12.7
2023-03-31T12:07:31.523Z,12.8
2023-03-31T12:08:32.640Z,12.8
2023-03-31T12:09:33.809Z,12.9
2023-03-31T12:10:35.002Z,12.9
2023-03-31T12:11:36.144Z,12.9
2023-03-31T12:12:37.615Z,13
2023-03-31T12:13:38.740Z,13
2023-03-31T12:14:39.912Z,13
2023-03-31T12:15:41.100Z,13
2023-03-31T12:16:42.389Z,13.1
2023-03-31T12:17:43.488Z,13.1
2023-03-31T12:18:44.632Z,13.1
2023-03-31T12:19:45.806Z,13
2023-03-31T12:20:46.977Z,13
2023-03-31T12:21:48.138Z,13
2023-03-31T12:22:49.134Z,13
2023-03-31T12:23:50.277Z,13
2023-03-31T12:24:51.437Z,12.9
2023-03-31T12:25:52.628Z,12.9
2023-03-31T12:26:53.775Z,12.9
2023-03-31T12:27:54.965Z,12.8
2023-03-31T12:28:56.102Z,12.8
2023-03-31T12:29:57.281Z,12.8
2023-03-31T12:30:58.421Z,12.8
2023-03-31T12:31:59.586Z,12.8
2023-03-31T12:33:00.480Z,12.9
2023-03-31T12:34:01.462Z,12.8
2023-03-31T12:35:02.629Z,12.9
2023-03-31T12:36:03.956Z,12.9
2023-03-31T12:37:05.786Z,12.9
2023-03-31T12:38:06.964Z,12.9
2023-03-31T12:39:08.114Z,12.9
2023-03-31T12:40:09.279Z,12.9
2023-03-31T12:41:10.615Z,12.9
2023-03-31T12:42:11.756Z,12.9
2023-03-31T12:43:12.752Z,12.9
2023-03-31T12:44:13.900Z,13
2023-03-31T12:45:15.084Z,13
2023-03-31T12:46:16.289Z,13
2023-03-31T12:47:17.580Z,13
2023-03-31T12:48:18.772Z,13
2023-03-31T12:49:19.897Z,13
2023-03-31T12:50:21.065Z,13
2023-03-31T12:51:22.034Z,13
2023-03-31T12:52:23.205Z,13
2023-03-31T12:53:24.386Z,12.9
2023-03-31T12:54:25.537Z,13
2023-03-31T12:55:26.699Z,13
2023-03-31T12:56:27.775Z,12.9
2023-03-31T12:57:28.857Z,12.9
2023-03-31T12:58:32.831Z,12.9
2023-03-31T12:59:34.239Z,12.8
2023-03-31T13:00:35.206Z,12.8
2023-03-31T13:01:36.497Z,12.8
2023-03-31T13:02:37.626Z,12.8
2023-03-31T13:03:38.894Z,12.9
2023-03-31T13:04:40.030Z,12.9
2023-03-31T13:05:41.195Z,12.9
2023-03-31T13:06:42.364Z,12.9
2023-03-31T13:07:43.527Z,12.9
2023-03-31T13:08:44.526Z,12.9
2023-03-31T13:09:45.671Z,12.9
2023-03-31T13:10:46.869Z,12.9
2023-03-31T13:11:48.362Z,12.9
2023-03-31T13:12:49.495Z,12.9
2023-03-31T13:14:00.016Z,12.8
2023-03-31T13:22:02.348Z,13.5
2023-03-31T13:23:03.505Z,13.5
2023-03-31T13:24:04.677Z,13.5
2023-03-31T13:25:05.852Z,13.6
2023-03-31T13:26:07.008Z,13.6
2023-03-31T13:27:07.999Z,13.7
2023-03-31T13:28:09.140Z,13.7
2023-03-31T13:29:10.456Z,13.7
2023-03-31T13:30:11.629Z,13.7
2023-03-31T13:31:12.626Z,13.6
2023-03-31T13:32:13.473Z,13.6
2023-03-31T13:33:15.370Z,13.5
2023-03-31T13:34:19.356Z,13.5
2023-03-31T13:35:20.525Z,13.4
2023-03-31T13:36:21.712Z,13.4
2023-03-31T13:37:22.793Z,13.4
2023-03-31T13:38:23.962Z,13.3
2023-03-31T13:39:24.932Z,13.3
2023-03-31T13:40:26.136Z,13.3
2023-03-31T13:41:27.271Z,13.3
2023-03-31T13:42:28.501Z,13.2
2023-03-31T13:43:29.527Z,13.2
2023-03-31T13:44:30.498Z,13.2
2023-03-31T13:45:31.690Z,13.1
2023-03-31T13:46:32.760Z,13.1
2023-03-31T13:47:33.920Z,13.1
2023-03-31T13:48:35.067Z,13.1
2023-03-31T13:49:36.224Z,13.1
2023-03-31T13:50:37.440Z,13.2
2023-03-31T13:51:38.586Z,13.1
2023-03-31T13:52:39.634Z,13.1
2023-03-31T13:53:40.777Z,13.1
2023-03-31T13:54:41.941Z,13.1
2023-03-31T13:55:42.930Z,13.1
2023-03-31T13:56:44.133Z,13
2023-03-31T13:57:45.275Z,13